createdAt,value
2019-02-05T00:01:50.058Z,4.13
2019-02-05T00:06:34.955Z,3.60
2019-02-05T00:11:19.834Z,4.40
2019-02-05T00:16:04.540Z,3.50
2019-02-05T00:20:49.438Z,3.97
2019-02-05T00:25:34.316Z,3.30
2019-02-05T00:30:19.078Z,3.20
2019-02-05T00:35:04.218Z,2.67
2019-02-05T00:39:50.412Z,3.03
2019-02-05T00:44:35.140Z,2.90
2019-02-05T00:49:20.344Z,3.03
2019-02-05T00:54:05.122Z,2.97
2019-02-05T00:58:49.888Z,2.70
2019-02-05T01:03:37.075Z,2.37
2019-02-05T01:08:21.949Z,2.40
2019-02-05T01:13:06.644Z,2.97
2019-02-05T01:17:51.673Z,2.63
2019-02-05T01:22:36.507Z,2.37
2019-02-05T01:27:21.265Z,2.00
2019-02-05T01:32:06.102Z,2.87
2019-02-05T01:36:51.362Z,2.43
2019-02-05T01:41:36.978Z,3.00
2019-02-05T01:46:21.751Z,2.33
2019-02-05T01:51:06.539Z,2.37
2019-02-05T01:55:51.248Z,2.33
2019-02-05T02:00:39.992Z,2.03
2019-02-05T02:05:25.127Z,1.97
2019-02-05T02:10:12.855Z,1.90
2019-02-05T02:15:04.742Z,2.37
2019-02-05T02:19:59.865Z,1.30
2019-02-05T02:24:45.787Z,1.63
2019-02-05T02:30:12.396Z,1.77
2019-02-05T02:35:27.464Z,1.60
2019-02-05T02:40:54.293Z,2.00
2019-02-05T02:51:39.443Z,1.90
2019-02-05T02:56:24.399Z,1.73
2019-02-05T03:01:09.162Z,1.53
2019-02-05T03:05:54.111Z,2.00
2019-02-05T03:10:39.029Z,1.63
2019-02-05T03:15:24.025Z,1.60
2019-02-05T03:20:09.769Z,1.77
2019-02-05T03:24:54.747Z,1.73
2019-02-05T03:29:39.592Z,2.57
2019-02-05T03:34:24.656Z,3.27
2019-02-05T03:39:09.335Z,2.70
2019-02-05T03:43:53.955Z,2.70
2019-02-05T03:48:38.921Z,3.13
2019-02-05T03:53:25.118Z,3.13
2019-02-05T03:58:34.286Z,2.87
2019-02-05T04:04:04.362Z,2.60
2019-02-05T04:09:00.527Z,4.23
2019-02-05T04:14:11.200Z,3.77
2019-02-05T04:19:38.902Z,4.33
2019-02-05T04:24:51.398Z,4.50
2019-02-05T04:30:17.448Z,3.20
2019-02-05T04:35:35.650Z,2.83
2019-02-05T04:40:29.671Z,2.80
2019-02-05T04:45:53.443Z,5.40
2019-02-05T04:50:59.744Z,7.57
2019-02-05T04:56:33.474Z,5.43
2019-02-05T05:01:50.935Z,3.33
2019-02-05T05:07:08.049Z,4.10
2019-02-05T05:11:52.612Z,3.80
2019-02-05T05:16:37.135Z,3.70
2019-02-05T05:21:21.899Z,4.73
2019-02-05T05:26:06.539Z,4.80
2019-02-05T05:30:51.563Z,5.80
2019-02-05T05:35:44.090Z,4.33
2019-02-05T05:40:22.358Z,5.33
2019-02-05T05:45:09.140Z,4.87
2019-02-05T05:49:53.828Z,3.80
2019-02-05T05:54:38.433Z,3.60
2019-02-05T05:59:23.052Z,3.07
2019-02-05T06:04:07.837Z,3.50
2019-02-05T06:08:52.330Z,4.47
2019-02-05T06:13:37.335Z,3.63
2019-02-05T06:18:21.923Z,3.87
2019-02-05T06:23:06.476Z,4.90
2019-02-05T06:27:50.971Z,4.93
2019-02-05T06:32:35.509Z,4.27
2019-02-05T06:37:20.025Z,3.87
2019-02-05T06:42:04.706Z,3.50
2019-02-05T06:46:49.335Z,2.80
2019-02-05T06:51:33.912Z,3.03
2019-02-05T06:56:18.717Z,3.40
2019-02-05T07:01:03.420Z,3.33
2019-02-05T07:05:48.172Z,3.60
2019-02-05T07:10:33.756Z,3.03
2019-02-05T07:15:18.694Z,2.77
2019-02-05T07:20:03.236Z,2.70
2019-02-05T07:24:47.958Z,2.90
2019-02-05T07:29:32.498Z,3.23
2019-02-05T07:34:17.005Z,2.93
2019-02-05T07:39:01.924Z,2.73
2019-02-05T07:43:46.585Z,2.67
2019-02-05T07:48:31.219Z,2.87
2019-02-05T07:53:15.793Z,2.77
2019-02-05T07:58:00.543Z,2.70
2019-02-05T08:02:45.091Z,2.70
2019-02-05T08:07:29.753Z,3.83
2019-02-05T08:12:14.461Z,4.27
2019-02-05T08:16:59.051Z,3.40
2019-02-05T08:21:43.709Z,3.23
2019-02-05T08:26:28.344Z,3.50
2019-02-05T08:31:12.950Z,3.80
2019-02-05T08:35:57.556Z,3.30
2019-02-05T08:40:42.307Z,3.93
2019-02-05T08:45:28.626Z,4.13
2019-02-05T08:50:16.091Z,3.83
2019-02-05T08:55:00.686Z,4.03
2019-02-05T08:59:45.410Z,4.47
2019-02-05T09:04:30.056Z,4.23
2019-02-05T09:09:14.670Z,4.10
2019-02-05T09:14:10.348Z,3.93
2019-02-05T09:18:45.654Z,3.30
2019-02-05T09:23:30.660Z,4.00
2019-02-05T09:28:15.378Z,3.80
2019-02-05T09:33:01.811Z,3.80
2019-02-05T09:37:46.503Z,4.23
2019-02-05T09:42:31.079Z,3.93
2019-02-05T09:47:15.664Z,3.90
2019-02-05T09:52:00.206Z,3.80
2019-02-05T09:56:44.760Z,4.27
2019-02-05T10:01:29.417Z,5.00
2019-02-05T10:06:14.263Z,4.17
2019-02-05T10:10:59.534Z,4.33
2019-02-05T10:15:44.434Z,4.77
2019-02-05T10:20:29.180Z,5.00
2019-02-05T10:25:14.073Z,5.03
2019-02-05T10:29:59.622Z,5.63
2019-02-05T10:34:44.286Z,9.30
2019-02-05T10:39:29.079Z,5.33
2019-02-05T10:44:13.850Z,6.13
2019-02-05T10:48:59.033Z,6.13
2019-02-05T10:53:44.021Z,5.73
2019-02-05T10:58:29.178Z,5.43
2019-02-05T11:03:14.237Z,6.30
2019-02-05T11:08:01.750Z,6.33
2019-02-05T11:12:48.350Z,6.40
2019-02-05T11:17:33.288Z,5.90
2019-02-05T11:22:18.292Z,6.80
2019-02-05T11:27:02.942Z,6.10
2019-02-05T11:31:47.818Z,7.23
2019-02-05T11:36:32.917Z,7.57
2019-02-05T11:41:18.389Z,7.37
2019-02-05T11:46:03.250Z,8.50
2019-02-05T11:50:48.191Z,7.40
2019-02-05T11:55:34.908Z,7.70
2019-02-05T12:00:32.693Z,8.37
2019-02-05T12:05:15.368Z,8.57
2019-02-05T12:10:01.660Z,8.53
2019-02-05T12:14:50.362Z,8.20
2019-02-05T12:19:34.512Z,7.70
2019-02-05T12:24:19.309Z,9.60
2019-02-05T12:29:04.305Z,8.93
2019-02-05T12:33:50.829Z,9.37
2019-02-05T12:38:37.352Z,9.37
2019-02-05T12:43:22.261Z,12.03
2019-02-05T12:48:07.218Z,12.57
2019-02-05T12:52:52.363Z,15.03
2019-02-05T12:57:37.714Z,11.10
2019-02-05T13:02:22.615Z,12.17
2019-02-05T13:07:07.451Z,12.83
2019-02-05T13:11:52.262Z,9.80
2019-02-05T13:16:37.279Z,9.93
2019-02-05T13:21:21.922Z,9.40
2019-02-05T13:26:08.362Z,10.03
2019-02-05T13:30:53.334Z,8.77
2019-02-05T13:35:38.194Z,9.50
2019-02-05T13:40:24.598Z,9.00
2019-02-05T13:45:10.180Z,9.47
2019-02-05T13:49:54.933Z,9.43
2019-02-05T13:54:39.924Z,9.70
2019-02-05T13:59:24.701Z,9.77
2019-02-05T14:04:09.487Z,10.03
2019-02-05T14:08:54.623Z,8.73
2019-02-05T14:13:44.410Z,9.57
2019-02-05T14:18:29.059Z,9.90
2019-02-05T14:23:14.050Z,9.70
2019-02-05T14:27:58.990Z,10.30
2019-02-05T14:32:43.942Z,9.67
2019-02-05T14:37:29.043Z,8.97
2019-02-05T14:42:14.410Z,10.10
2019-02-05T14:47:00.840Z,10.43
2019-02-05T14:51:46.706Z,9.63
2019-02-05T14:56:31.618Z,10.03
2019-02-05T15:01:16.370Z,10.30
2019-02-05T15:06:01.225Z,10.60
2019-02-05T15:10:46.263Z,9.17
2019-02-05T15:15:32.377Z,9.30
2019-02-05T15:20:32.052Z,9.30
2019-02-05T15:25:16.780Z,10.27
2019-02-05T15:30:01.625Z,10.87
2019-02-05T15:34:46.452Z,9.93
2019-02-05T15:39:31.287Z,9.87
2019-02-05T15:44:16.209Z,10.97
2019-02-05T15:49:01.186Z,10.27
2019-02-05T15:53:46.059Z,10.40
2019-02-05T15:58:31.059Z,10.53
2019-02-05T16:03:16.179Z,10.87
2019-02-05T16:08:01.126Z,12.17
2019-02-05T16:12:45.886Z,10.93
2019-02-05T16:17:31.389Z,11.97
2019-02-05T16:22:16.221Z,12.13
2019-02-05T16:27:05.958Z,11.87
2019-02-05T16:31:50.907Z,13.13
2019-02-05T16:36:36.776Z,11.97
2019-02-05T16:41:21.601Z,13.33
2019-02-05T16:46:06.366Z,12.67
2019-02-05T16:50:51.466Z,12.80
2019-02-05T16:55:36.256Z,12.60
2019-02-05T17:00:23.424Z,12.27
2019-02-05T17:05:08.830Z,14.07
2019-02-05T17:09:53.632Z,12.67
2019-02-05T17:14:38.655Z,12.47
2019-02-05T17:19:23.621Z,13.13
2019-02-05T17:24:08.418Z,14.20
2019-02-05T17:28:56.363Z,14.20
2019-02-05T17:33:41.324Z,14.40
2019-02-05T17:38:26.186Z,13.93
2019-02-05T17:43:11.059Z,13.47
2019-02-05T17:47:56.093Z,14.70
2019-02-05T17:52:40.968Z,13.43
2019-02-05T17:57:25.802Z,14.03
2019-02-05T18:02:11.321Z,14.03
2019-02-05T18:06:56.265Z,15.37
2019-02-05T18:11:41.007Z,14.03
2019-02-05T18:16:25.888Z,15.93
2019-02-05T18:21:10.578Z,16.63
2019-02-05T18:25:55.346Z,18.27
2019-02-05T18:30:40.434Z,15.47
2019-02-05T18:35:25.192Z,15.27
2019-02-05T18:40:11.224Z,15.27
2019-02-05T18:44:56.051Z,14.87
2019-02-05T18:49:40.867Z,16.37
2019-02-05T18:54:25.789Z,14.80
2019-02-05T18:59:10.728Z,15.80
2019-02-05T19:03:55.831Z,15.60
2019-02-05T19:08:40.725Z,16.17
2019-02-05T19:13:25.721Z,15.70
2019-02-05T19:18:11.944Z,15.70
2019-02-05T19:22:56.592Z,15.73
2019-02-05T19:27:41.320Z,15.93
2019-02-05T19:32:28.147Z,15.70
2019-02-05T19:37:12.926Z,17.30
2019-02-05T19:41:57.725Z,15.10
2019-02-05T19:46:50.751Z,15.90
2019-02-05T19:51:35.770Z,17.13
2019-02-05T19:56:20.498Z,15.90
2019-02-05T20:01:05.820Z,17.00
2019-02-05T20:05:50.440Z,16.97
2019-02-05T20:10:35.257Z,16.27
2019-02-05T20:15:20.061Z,16.47
2019-02-05T20:20:05.934Z,15.83
2019-02-05T20:24:52.114Z,17.83
2019-02-05T20:29:37.038Z,17.30
2019-02-05T20:34:23.239Z,17.03
2019-02-05T20:39:18.370Z,17.30
2019-02-05T20:44:03.194Z,17.67
2019-02-05T20:48:48.078Z,17.67
2019-02-05T20:53:32.892Z,18.13
2019-02-05T20:58:18.046Z,17.27
2019-02-05T21:03:02.851Z,17.07
2019-02-05T21:07:47.877Z,16.63
2019-02-05T21:12:33.082Z,17.80
2019-02-05T21:17:18.149Z,17.50
2019-02-05T21:22:02.984Z,16.87
2019-02-05T21:26:47.936Z,17.37
2019-02-05T21:31:32.783Z,19.53
2019-02-05T21:36:17.545Z,17.77
2019-02-05T21:41:02.337Z,16.13
2019-02-05T21:45:47.251Z,17.73
2019-02-05T21:50:32.018Z,17.67
2019-02-05T21:55:17.839Z,17.83
2019-02-05T22:00:02.557Z,18.23
2019-02-05T22:04:47.408Z,17.63
2019-02-05T22:09:32.126Z,18.17
2019-02-05T22:14:17.090Z,17.87
2019-02-05T22:19:01.967Z,20.13
2019-02-05T22:23:47.395Z,16.70
2019-02-05T22:28:32.063Z,19.00
2019-02-05T22:33:17.109Z,19.33
2019-02-05T22:38:01.921Z,20.43
2019-02-05T22:42:46.781Z,19.37
2019-02-05T22:47:34.135Z,18.80
2019-02-05T22:52:18.928Z,19.83
2019-02-05T22:57:04.821Z,18.50
2019-02-05T23:01:56.207Z,18.23
2019-02-05T23:06:47.869Z,18.00
2019-02-05T23:12:13.472Z,17.00
2019-02-05T23:16:58.768Z,18.23
2019-02-05T23:21:43.532Z,17.70
2019-02-05T23:26:28.168Z,17.33
2019-02-05T23:31:13.068Z,18.97
2019-02-05T23:35:57.696Z,16.70
2019-02-05T23:40:42.460Z,18.07
2019-02-05T23:45:27.430Z,16.23
2019-02-05T23:50:13.843Z,17.57
2019-02-05T23:54:59.114Z,16.17
2019-02-05T23:59:43.822Z,17.50
